Terminal Aerodrome Forecast
Issued by NWS Melbourne, FL

Current Version | Previous Version | Text Only | Print | Product List | Glossary On
Versions: 1 2 3 4 5 6 7 8 9 10 11 12 13 14 15 16
000
FTUS42 KMLB 180536
TAFVRB
TAF
KVRB 180536Z 1806/1906 VRB03KT P6SM FEW015 BKN100
     FM181400 26006KT P6SM SCT020 BKN250
     FM181900 07009KT P6SM VCTS SCT030CB BKN100
     FM190000 10006KT P6SM VCSH SCT030 BKN080 BKN250
     FM190300 17003KT P6SM FEW030 SCT080 BKN250=

USA.gov is the U.S. government's official web portal to all federal, state and local government web resources and services.